Airfield :
LOGIN :

Register | Disclaimer

   EN    FR    IT 

 










Legend :    VFR   Marginal VFR   IFR   Intensive IFR   Very Intensive IFR
Visi :
Ceiling :
>= 8 km
>= 3000ft
5 to 8 km
1000 to 3000 ft
1500m to 5 km
500 to 1000 ft
800 to 1500m
200 to 500 ft
< 800m
< 200 ft
Symbols :   Thunderstorms  Fog  Heavy snow  Heavy precipitations  Wind > 20 kt
SIGMETs :     Misc.  Thunderstorms  Icing  Turbulence  Mountain Waves  Volcanic Ashes






- Airport Elevation : 600 ft
- IATA code : VIE


LOWW - Vienna Schwechat

CURRENT METAR :
  • 041120Z 33011KT 9999 FEW050 FEW050TCU 27/15 Q1018 NOSIG

EXPIRED METARs :
  • 041050Z 33009KT 9999 FEW044 FEW050TCU 27/15 Q1018 TEMPO SHRA
  • 041020Z 34006KT 310V010 9999 FEW044 FEW050TCU 27/16 Q1017 TEMPO SHRA
  • 040950Z 28010KT 9999 FEW038 FEW050CB 27/14 Q1018 TEMPO SHRA
  • 040920Z 28013KT 9999 FEW050CB 28/14 Q1018 TEMPO SHRA
  • 040850Z 29011KT 260V320 CAVOK 28/14 Q1018 TEMPO SHRA

TAF TAF LOWW
Valid from the 04 at 12:00 until the 05 at 18:00 UTC


041115Z 0412/0518 31010KT 9999 SCT050 TX28/0415Z TN20/0504Z
TEMPO 0412/0423 -SHRA FEW060CB
TEMPO 0423/0507 TSRA
PROB40
TEMPO 0502/0506 35015G30KT 2800 +TSRA BKN020 SCT020CB
TEMPO 0507/0514 SHRA FEW040CB



MET'MAP, your aeronautical weather chart ! - Copyright ORBIFLY December 2007 - Disclaimer

ORBIFLY MET'MAP TEAM :

Programming & Development : Alexandra Zaïnal
Original concept : Baudouin d'Aumeries
Technical & hardware support : Manuel Goepfert
Assistance : Marc-Olivier Méhu




SOURCES & CREDITS :

   NOAA